sensor_id;sensor_type;location;lat;lon;timestamp;temperature;humidity
51007;DHT22;37034;47.886;-3.904;2023-05-10T00:02:19;15.40;94.40
51007;DHT22;37034;47.886;-3.904;2023-05-10T00:04:45;15.30;94.40
51007;DHT22;37034;47.886;-3.904;2023-05-10T00:07:10;15.30;94.40
51007;DHT22;37034;47.886;-3.904;2023-05-10T00:09:36;15.40;94.40
51007;DHT22;37034;47.886;-3.904;2023-05-10T00:12:02;15.30;94.50
51007;DHT22;37034;47.886;-3.904;2023-05-10T00:14:27;15.30;94.50
51007;DHT22;37034;47.886;-3.904;2023-05-10T00:16:53;15.30;94.50
51007;DHT22;37034;47.886;-3.904;2023-05-10T00:19:19;15.30;94.50
51007;DHT22;37034;47.886;-3.904;2023-05-10T00:21:44;15.30;94.50
51007;DHT22;37034;47.886;-3.904;2023-05-10T00:24:10;15.40;94.60
51007;DHT22;37034;47.886;-3.904;2023-05-10T00:26:36;15.40;94.50
51007;DHT22;37034;47.886;-3.904;2023-05-10T00:29:01;15.40;94.60
51007;DHT22;37034;47.886;-3.904;2023-05-10T00:31:27;15.30;94.60
51007;DHT22;37034;47.886;-3.904;2023-05-10T00:33:53;15.30;94.60
51007;DHT22;37034;47.886;-3.904;2023-05-10T00:36:19;15.30;94.70
51007;DHT22;37034;47.886;-3.904;2023-05-10T00:38:44;15.30;94.70
51007;DHT22;37034;47.886;-3.904;2023-05-10T00:41:14;15.30;94.70
51007;DHT22;37034;47.886;-3.904;2023-05-10T00:43:40;15.30;94.80
51007;DHT22;37034;47.886;-3.904;2023-05-10T00:46:06;15.30;94.70
51007;DHT22;37034;47.886;-3.904;2023-05-10T00:48:32;15.30;94.70
51007;DHT22;37034;47.886;-3.904;2023-05-10T00:50:58;15.30;94.80
51007;DHT22;37034;47.886;-3.904;2023-05-10T00:53:24;15.30;94.70
51007;DHT22;37034;47.886;-3.904;2023-05-10T00:55:50;15.30;94.80
51007;DHT22;37034;47.886;-3.904;2023-05-10T00:58:17;15.30;94.80
51007;DHT22;37034;47.886;-3.904;2023-05-10T01:00:45;15.30;94.90
51007;DHT22;37034;47.886;-3.904;2023-05-10T01:03:11;15.30;94.80
51007;DHT22;37034;47.886;-3.904;2023-05-10T01:05:37;15.30;94.90
51007;DHT22;37034;47.886;-3.904;2023-05-10T01:08:03;15.30;94.90
51007;DHT22;37034;47.886;-3.904;2023-05-10T01:10:30;15.30;94.90
51007;DHT22;37034;47.886;-3.904;2023-05-10T01:12:56;15.30;94.90
51007;DHT22;37034;47.886;-3.904;2023-05-10T01:15:22;15.40;95.00
51007;DHT22;37034;47.886;-3.904;2023-05-10T01:17:49;15.30;94.90
51007;DHT22;37034;47.886;-3.904;2023-05-10T01:20:15;15.30;94.90
51007;DHT22;37034;47.886;-3.904;2023-05-10T01:23:04;15.40;95.00
51007;DHT22;37034;47.886;-3.904;2023-05-10T01:26:06;15.30;95.10
51007;DHT22;37034;47.886;-3.904;2023-05-10T01:28:45;15.30;95.20
51007;DHT22;37034;47.886;-3.904;2023-05-10T01:35:02;15.30;95.20
51007;DHT22;37034;47.886;-3.904;2023-05-10T01:42:40;15.30;95.40
51007;DHT22;37034;47.886;-3.904;2023-05-10T01:48:11;15.20;95.10
51007;DHT22;37034;47.886;-3.904;2023-05-10T01:50:43;15.20;95.20
51007;DHT22;37034;47.886;-3.904;2023-05-10T01:53:11;15.20;95.30
51007;DHT22;37034;47.886;-3.904;2023-05-10T01:55:46;15.20;95.30
51007;DHT22;37034;47.886;-3.904;2023-05-10T01:58:31;15.20;95.30
51007;DHT22;37034;47.886;-3.904;2023-05-10T02:01:00;15.20;95.30
51007;DHT22;37034;47.886;-3.904;2023-05-10T02:03:27;15.20;95.40
51007;DHT22;37034;47.886;-3.904;2023-05-10T02:05:54;15.20;95.40
51007;DHT22;37034;47.886;-3.904;2023-05-10T02:08:22;15.20;95.50
51007;DHT22;37034;47.886;-3.904;2023-05-10T02:10:48;15.30;95.60
51007;DHT22;37034;47.886;-3.904;2023-05-10T02:13:16;15.30;95.70
51007;DHT22;37034;47.886;-3.904;2023-05-10T02:15:43;15.30;95.50
51007;DHT22;37034;47.886;-3.904;2023-05-10T02:18:10;15.40;95.50
51007;DHT22;37034;47.886;-3.904;2023-05-10T02:20:37;15.40;95.80
51007;DHT22;37034;47.886;-3.904;2023-05-10T02:23:05;15.50;95.70
51007;DHT22;37034;47.886;-3.904;2023-05-10T02:25:32;15.50;95.70
51007;DHT22;37034;47.886;-3.904;2023-05-10T02:28:00;15.60;96.00
51007;DHT22;37034;47.886;-3.904;2023-05-10T02:30:27;15.60;96.40
51007;DHT22;37034;47.886;-3.904;2023-05-10T02:32:54;15.60;96.40
51007;DHT22;37034;47.886;-3.904;2023-05-10T02:35:22;15.60;96.30
51007;DHT22;37034;47.886;-3.904;2023-05-10T02:37:48;15.50;96.50
51007;DHT22;37034;47.886;-3.904;2023-05-10T02:40:16;15.30;96.60
51007;DHT22;37034;47.886;-3.904;2023-05-10T02:42:43;15.30;96.80
51007;DHT22;37034;47.886;-3.904;2023-05-10T02:45:17;15.30;96.80
51007;DHT22;37034;47.886;-3.904;2023-05-10T02:47:43;15.30;97.10
51007;DHT22;37034;47.886;-3.904;2023-05-10T02:50:09;15.30;97.00
51007;DHT22;37034;47.886;-3.904;2023-05-10T02:52:46;15.30;96.90
51007;DHT22;37034;47.886;-3.904;2023-05-10T02:55:15;15.30;97.00
51007;DHT22;37034;47.886;-3.904;2023-05-10T02:57:57;15.30;97.10
51007;DHT22;37034;47.886;-3.904;2023-05-10T03:00:24;15.20;97.10
51007;DHT22;37034;47.886;-3.904;2023-05-10T03:02:50;15.30;97.10
51007;DHT22;37034;47.886;-3.904;2023-05-10T03:05:19;15.20;97.30
51007;DHT22;37034;47.886;-3.904;2023-05-10T03:07:45;15.30;96.90
51007;DHT22;37034;47.886;-3.904;2023-05-10T03:10:12;15.30;96.90
51007;DHT22;37034;47.886;-3.904;2023-05-10T03:12:53;15.30;97.00
51007;DHT22;37034;47.886;-3.904;2023-05-10T03:18:42;15.30;97.00
51007;DHT22;37034;47.886;-3.904;2023-05-10T03:21:11;15.30;97.00
51007;DHT22;37034;47.886;-3.904;2023-05-10T03:23:46;15.30;96.80
51007;DHT22;37034;47.886;-3.904;2023-05-10T03:26:32;15.20;96.80
51007;DHT22;37034;47.886;-3.904;2023-05-10T03:28:58;15.30;97.00
51007;DHT22;37034;47.886;-3.904;2023-05-10T03:31:25;15.30;96.80
51007;DHT22;37034;47.886;-3.904;2023-05-10T03:33:51;15.20;96.90
51007;DHT22;37034;47.886;-3.904;2023-05-10T03:36:17;15.20;97.00
51007;DHT22;37034;47.886;-3.904;2023-05-10T03:38:43;15.20;97.20
51007;DHT22;37034;47.886;-3.904;2023-05-10T03:41:09;15.30;96.90
51007;DHT22;37034;47.886;-3.904;2023-05-10T03:43:35;15.30;97.00
51007;DHT22;37034;47.886;-3.904;2023-05-10T03:46:04;15.30;97.00
51007;DHT22;37034;47.886;-3.904;2023-05-10T03:48:30;15.30;97.00
51007;DHT22;37034;47.886;-3.904;2023-05-10T03:50:56;15.30;97.00
51007;DHT22;37034;47.886;-3.904;2023-05-10T03:53:22;15.40;97.20
51007;DHT22;37034;47.886;-3.904;2023-05-10T03:55:48;15.40;97.00
51007;DHT22;37034;47.886;-3.904;2023-05-10T03:58:14;15.40;97.00
51007;DHT22;37034;47.886;-3.904;2023-05-10T04:00:40;15.40;97.10
51007;DHT22;37034;47.886;-3.904;2023-05-10T04:03:11;15.30;97.10
51007;DHT22;37034;47.886;-3.904;2023-05-10T04:05:37;15.30;97.10
51007;DHT22;37034;47.886;-3.904;2023-05-10T04:08:03;15.40;97.30
51007;DHT22;37034;47.886;-3.904;2023-05-10T04:10:29;15.40;97.30
51007;DHT22;37034;47.886;-3.904;2023-05-10T04:12:57;15.50;97.20
51007;DHT22;37034;47.886;-3.904;2023-05-10T04:15:26;15.40;97.10
51007;DHT22;37034;47.886;-3.904;2023-05-10T04:17:52;15.50;97.20
51007;DHT22;37034;47.886;-3.904;2023-05-10T04:20:19;15.50;97.20
51007;DHT22;37034;47.886;-3.904;2023-05-10T04:22:44;15.40;97.10
51007;DHT22;37034;47.886;-3.904;2023-05-10T04:25:10;15.40;97.10
51007;DHT22;37034;47.886;-3.904;2023-05-10T04:27:36;15.30;97.10
51007;DHT22;37034;47.886;-3.904;2023-05-10T04:30:03;15.40;97.10
51007;DHT22;37034;47.886;-3.904;2023-05-10T04:32:29;15.40;97.10
51007;DHT22;37034;47.886;-3.904;2023-05-10T04:34:55;15.40;97.20
51007;DHT22;37034;47.886;-3.904;2023-05-10T04:37:21;15.40;97.10
51007;DHT22;37034;47.886;-3.904;2023-05-10T04:39:48;15.40;97.10
51007;DHT22;37034;47.886;-3.904;2023-05-10T04:42:13;15.40;97.20
51007;DHT22;37034;47.886;-3.904;2023-05-10T04:44:40;15.40;97.10
51007;DHT22;37034;47.886;-3.904;2023-05-10T04:47:06;15.40;97.20
51007;DHT22;37034;47.886;-3.904;2023-05-10T04:49:31;15.40;97.40
51007;DHT22;37034;47.886;-3.904;2023-05-10T04:51:57;15.40;97.20
51007;DHT22;37034;47.886;-3.904;2023-05-10T04:54:23;15.40;97.20
51007;DHT22;37034;47.886;-3.904;2023-05-10T04:56:49;15.40;97.30
51007;DHT22;37034;47.886;-3.904;2023-05-10T04:59:14;15.40;97.30
51007;DHT22;37034;47.886;-3.904;2023-05-10T05:01:40;15.50;97.30
51007;DHT22;37034;47.886;-3.904;2023-05-10T05:04:06;15.50;97.40
51007;DHT22;37034;47.886;-3.904;2023-05-10T05:06:32;15.60;97.40
51007;DHT22;37034;47.886;-3.904;2023-05-10T05:08:58;15.60;97.40
51007;DHT22;37034;47.886;-3.904;2023-05-10T05:11:23;15.60;97.40
51007;DHT22;37034;47.886;-3.904;2023-05-10T05:13:51;15.60;97.60
51007;DHT22;37034;47.886;-3.904;2023-05-10T05:16:17;15.60;97.40
51007;DHT22;37034;47.886;-3.904;2023-05-10T05:18:43;15.60;97.40
51007;DHT22;37034;47.886;-3.904;2023-05-10T05:21:15;15.70;97.50
51007;DHT22;37034;47.886;-3.904;2023-05-10T05:23:42;15.60;97.60
51007;DHT22;37034;47.886;-3.904;2023-05-10T05:26:07;15.60;97.60
51007;DHT22;37034;47.886;-3.904;2023-05-10T05:28:33;15.60;97.70
51007;DHT22;37034;47.886;-3.904;2023-05-10T05:31:02;15.60;97.70
51007;DHT22;37034;47.886;-3.904;2023-05-10T05:33:28;15.60;97.70
51007;DHT22;37034;47.886;-3.904;2023-05-10T05:35:54;15.60;97.70
51007;DHT22;37034;47.886;-3.904;2023-05-10T05:38:19;15.60;97.70
51007;DHT22;37034;47.886;-3.904;2023-05-10T05:40:45;15.60;97.60
51007;DHT22;37034;47.886;-3.904;2023-05-10T05:43:11;15.60;97.70
51007;DHT22;37034;47.886;-3.904;2023-05-10T05:45:37;15.60;97.70
51007;DHT22;37034;47.886;-3.904;2023-05-10T05:48:02;15.60;97.70
51007;DHT22;37034;47.886;-3.904;2023-05-10T05:50:28;15.60;97.70
51007;DHT22;37034;47.886;-3.904;2023-05-10T05:52:54;15.70;97.80
51007;DHT22;37034;47.886;-3.904;2023-05-10T05:55:19;15.70;97.80
51007;DHT22;37034;47.886;-3.904;2023-05-10T05:57:45;15.80;97.90
51007;DHT22;37034;47.886;-3.904;2023-05-10T06:00:11;15.80;97.90
51007;DHT22;37034;47.886;-3.904;2023-05-10T06:02:37;15.90;97.90
51007;DHT22;37034;47.886;-3.904;2023-05-10T06:05:03;15.90;97.90
51007;DHT22;37034;47.886;-3.904;2023-05-10T06:07:28;15.90;97.90
51007;DHT22;37034;47.886;-3.904;2023-05-10T06:09:54;16.00;97.80
51007;DHT22;37034;47.886;-3.904;2023-05-10T06:12:20;16.00;97.80
51007;DHT22;37034;47.886;-3.904;2023-05-10T06:14:45;16.00;97.80
51007;DHT22;37034;47.886;-3.904;2023-05-10T06:17:11;16.10;98.00
51007;DHT22;37034;47.886;-3.904;2023-05-10T06:19:37;16.10;98.00
51007;DHT22;37034;47.886;-3.904;2023-05-10T06:22:03;16.20;98.10
51007;DHT22;37034;47.886;-3.904;2023-05-10T06:24:28;16.30;98.10
51007;DHT22;37034;47.886;-3.904;2023-05-10T06:26:54;16.40;98.00
51007;DHT22;37034;47.886;-3.904;2023-05-10T06:29:25;16.40;98.00
51007;DHT22;37034;47.886;-3.904;2023-05-10T06:31:51;16.40;97.70
51007;DHT22;37034;47.886;-3.904;2023-05-10T06:34:19;16.30;97.60
51007;DHT22;37034;47.886;-3.904;2023-05-10T06:36:47;16.30;97.70
51007;DHT22;37034;47.886;-3.904;2023-05-10T06:39:13;16.30;97.70
51007;DHT22;37034;47.886;-3.904;2023-05-10T06:41:39;16.30;97.80
51007;DHT22;37034;47.886;-3.904;2023-05-10T06:44:05;16.30;97.80
51007;DHT22;37034;47.886;-3.904;2023-05-10T06:46:36;16.40;97.80
51007;DHT22;37034;47.886;-3.904;2023-05-10T06:49:22;16.30;98.10
51007;DHT22;37034;47.886;-3.904;2023-05-10T06:52:04;16.40;98.00
51007;DHT22;37034;47.886;-3.904;2023-05-10T06:54:33;16.20;98.00
51007;DHT22;37034;47.886;-3.904;2023-05-10T06:57:06;16.20;98.00
51007;DHT22;37034;47.886;-3.904;2023-05-10T07:02:36;16.10;98.00
51007;DHT22;37034;47.886;-3.904;2023-05-10T07:05:02;15.90;98.20
51007;DHT22;37034;47.886;-3.904;2023-05-10T07:07:28;16.00;98.20
51007;DHT22;37034;47.886;-3.904;2023-05-10T07:09:54;15.90;98.20
51007;DHT22;37034;47.886;-3.904;2023-05-10T07:12:21;15.90;98.40
51007;DHT22;37034;47.886;-3.904;2023-05-10T07:14:47;16.00;98.90
51007;DHT22;37034;47.886;-3.904;2023-05-10T07:17:13;16.20;98.80
51007;DHT22;37034;47.886;-3.904;2023-05-10T07:19:39;16.30;98.50
51007;DHT22;37034;47.886;-3.904;2023-05-10T07:22:04;16.40;98.50
51007;DHT22;37034;47.886;-3.904;2023-05-10T07:24:30;16.60;98.40
51007;DHT22;37034;47.886;-3.904;2023-05-10T07:26:56;16.60;98.20
51007;DHT22;37034;47.886;-3.904;2023-05-10T07:29:22;16.70;98.30
51007;DHT22;37034;47.886;-3.904;2023-05-10T07:31:48;16.80;98.50
51007;DHT22;37034;47.886;-3.904;2023-05-10T07:34:13;16.90;98.40
51007;DHT22;37034;47.886;-3.904;2023-05-10T07:36:42;17.00;98.40
51007;DHT22;37034;47.886;-3.904;2023-05-10T07:39:08;17.10;98.00
51007;DHT22;37034;47.886;-3.904;2023-05-10T07:41:33;17.10;97.80
51007;DHT22;37034;47.886;-3.904;2023-05-10T07:43:59;16.90;98.10
51007;DHT22;37034;47.886;-3.904;2023-05-10T07:46:25;17.10;98.60
51007;DHT22;37034;47.886;-3.904;2023-05-10T07:48:50;17.20;98.30
51007;DHT22;37034;47.886;-3.904;2023-05-10T07:51:16;17.30;98.60
51007;DHT22;37034;47.886;-3.904;2023-05-10T07:53:42;17.60;98.50
51007;DHT22;37034;47.886;-3.904;2023-05-10T07:56:28;17.70;98.30
51007;DHT22;37034;47.886;-3.904;2023-05-10T07:58:58;17.60;97.70
51007;DHT22;37034;47.886;-3.904;2023-05-10T08:01:25;17.70;97.90
51007;DHT22;37034;47.886;-3.904;2023-05-10T08:03:51;17.70;98.00
51007;DHT22;37034;47.886;-3.904;2023-05-10T08:06:18;17.90;98.10
51007;DHT22;37034;47.886;-3.904;2023-05-10T08:08:44;18.00;97.90
51007;DHT22;37034;47.886;-3.904;2023-05-10T08:11:17;17.90;97.30
51007;DHT22;37034;47.886;-3.904;2023-05-10T08:13:46;17.90;97.20
51007;DHT22;37034;47.886;-3.904;2023-05-10T08:16:12;17.70;96.80
51007;DHT22;37034;47.886;-3.904;2023-05-10T08:18:38;17.50;97.10
51007;DHT22;37034;47.886;-3.904;2023-05-10T08:21:04;17.40;97.20
51007;DHT22;37034;47.886;-3.904;2023-05-10T08:23:30;17.30;97.30
51007;DHT22;37034;47.886;-3.904;2023-05-10T08:25:56;17.30;97.20
51007;DHT22;37034;47.886;-3.904;2023-05-10T08:28:21;17.40;97.60
51007;DHT22;37034;47.886;-3.904;2023-05-10T08:30:47;17.50;97.90
51007;DHT22;37034;47.886;-3.904;2023-05-10T08:33:13;17.70;97.80
51007;DHT22;37034;47.886;-3.904;2023-05-10T08:35:39;17.60;97.30
51007;DHT22;37034;47.886;-3.904;2023-05-10T08:38:04;17.60;96.90
51007;DHT22;37034;47.886;-3.904;2023-05-10T08:40:30;17.50;96.90
51007;DHT22;37034;47.886;-3.904;2023-05-10T08:43:05;17.50;97.30
51007;DHT22;37034;47.886;-3.904;2023-05-10T08:45:40;17.40;97.20
51007;DHT22;37034;47.886;-3.904;2023-05-10T08:48:08;17.50;97.10
51007;DHT22;37034;47.886;-3.904;2023-05-10T08:50:36;17.50;97.10
51007;DHT22;37034;47.886;-3.904;2023-05-10T08:53:06;17.40;97.10
51007;DHT22;37034;47.886;-3.904;2023-05-10T08:55:34;17.60;97.60
51007;DHT22;37034;47.886;-3.904;2023-05-10T08:58:03;17.60;97.50
51007;DHT22;37034;47.886;-3.904;2023-05-10T09:00:29;17.90;97.90
51007;DHT22;37034;47.886;-3.904;2023-05-10T09:02:56;18.00;97.60
51007;DHT22;37034;47.886;-3.904;2023-05-10T09:05:26;18.10;97.10
51007;DHT22;37034;47.886;-3.904;2023-05-10T09:07:52;18.10;96.80
51007;DHT22;37034;47.886;-3.904;2023-05-10T09:10:19;18.20;96.60
51007;DHT22;37034;47.886;-3.904;2023-05-10T09:12:45;18.20;96.50
51007;DHT22;37034;47.886;-3.904;2023-05-10T09:15:11;18.20;95.60
51007;DHT22;37034;47.886;-3.904;2023-05-10T09:17:39;18.00;95.80
51007;DHT22;37034;47.886;-3.904;2023-05-10T09:20:06;17.90;95.90
51007;DHT22;37034;47.886;-3.904;2023-05-10T09:22:35;17.80;95.70
51007;DHT22;37034;47.886;-3.904;2023-05-10T09:25:09;17.70;95.70
51007;DHT22;37034;47.886;-3.904;2023-05-10T09:27:37;17.70;96.10
51007;DHT22;37034;47.886;-3.904;2023-05-10T09:30:29;17.80;96.10
51007;DHT22;37034;47.886;-3.904;2023-05-10T09:32:56;17.50;95.40
51007;DHT22;37034;47.886;-3.904;2023-05-10T09:35:26;17.70;95.90
51007;DHT22;37034;47.886;-3.904;2023-05-10T09:37:57;17.90;96.30
51007;DHT22;37034;47.886;-3.904;2023-05-10T09:40:25;18.10;96.20
51007;DHT22;37034;47.886;-3.904;2023-05-10T09:43:03;18.30;95.60
51007;DHT22;37034;47.886;-3.904;2023-05-10T09:45:31;18.30;96.00
51007;DHT22;37034;47.886;-3.904;2023-05-10T09:47:58;18.50;96.10
51007;DHT22;37034;47.886;-3.904;2023-05-10T09:51:09;18.70;95.30
51007;DHT22;37034;47.886;-3.904;2023-05-10T09:53:35;18.60;95.20
51007;DHT22;37034;47.886;-3.904;2023-05-10T09:56:33;18.90;96.10
51007;DHT22;37034;47.886;-3.904;2023-05-10T09:59:04;19.20;95.20
51007;DHT22;37034;47.886;-3.904;2023-05-10T10:01:30;19.50;95.00
51007;DHT22;37034;47.886;-3.904;2023-05-10T10:04:11;19.60;94.30
51007;DHT22;37034;47.886;-3.904;2023-05-10T10:06:40;19.50;93.70
51007;DHT22;37034;47.886;-3.904;2023-05-10T10:09:07;19.30;93.30
51007;DHT22;37034;47.886;-3.904;2023-05-10T10:27:28;19.20;93.70
51007;DHT22;37034;47.886;-3.904;2023-05-10T10:35:37;19.30;92.60
51007;DHT22;37034;47.886;-3.904;2023-05-10T10:38:03;19.20;92.60
51007;DHT22;37034;47.886;-3.904;2023-05-10T10:40:33;19.10;92.90
51007;DHT22;37034;47.886;-3.904;2023-05-10T10:43:25;18.90;92.50
51007;DHT22;37034;47.886;-3.904;2023-05-10T10:48:40;18.70;93.00
51007;DHT22;37034;47.886;-3.904;2023-05-10T10:51:06;18.80;92.80
51007;DHT22;37034;47.886;-3.904;2023-05-10T10:53:32;18.70;93.00
51007;DHT22;37034;47.886;-3.904;2023-05-10T10:56:07;18.70;92.90
51007;DHT22;37034;47.886;-3.904;2023-05-10T10:58:35;18.80;92.70
51007;DHT22;37034;47.886;-3.904;2023-05-10T11:01:15;18.80;93.00
51007;DHT22;37034;47.886;-3.904;2023-05-10T11:06:33;19.00;92.70
51007;DHT22;37034;47.886;-3.904;2023-05-10T11:09:09;19.10;93.00
51007;DHT22;37034;47.886;-3.904;2023-05-10T11:11:54;19.10;92.80
51007;DHT22;37034;47.886;-3.904;2023-05-10T11:14:23;19.20;93.20
51007;DHT22;37034;47.886;-3.904;2023-05-10T11:16:58;19.20;93.20
51007;DHT22;37034;47.886;-3.904;2023-05-10T11:20:10;19.30;93.70
51007;DHT22;37034;47.886;-3.904;2023-05-10T11:23:14;19.40;93.70
51007;DHT22;37034;47.886;-3.904;2023-05-10T11:25:48;19.60;94.10
51007;DHT22;37034;47.886;-3.904;2023-05-10T11:28:16;19.90;93.80
51007;DHT22;37034;47.886;-3.904;2023-05-10T11:30:44;20.10;93.40
51007;DHT22;37034;47.886;-3.904;2023-05-10T11:33:36;20.10;93.00
51007;DHT22;37034;47.886;-3.904;2023-05-10T11:36:11;20.00;92.20
51007;DHT22;37034;47.886;-3.904;2023-05-10T11:38:37;19.70;91.70
51007;DHT22;37034;47.886;-3.904;2023-05-10T11:44:21;19.40;92.50
51007;DHT22;37034;47.886;-3.904;2023-05-10T11:46:47;19.40;92.50
51007;DHT22;37034;47.886;-3.904;2023-05-10T11:49:16;19.40;92.50
51007;DHT22;37034;47.886;-3.904;2023-05-10T11:51:42;19.40;92.50
51007;DHT22;37034;47.886;-3.904;2023-05-10T11:54:11;19.40;92.80
51007;DHT22;37034;47.886;-3.904;2023-05-10T11:56:38;19.60;92.80
51007;DHT22;37034;47.886;-3.904;2023-05-10T11:59:04;19.80;92.70
51007;DHT22;37034;47.886;-3.904;2023-05-10T12:01:30;19.80;92.10
51007;DHT22;37034;47.886;-3.904;2023-05-10T12:03:57;19.20;91.30
51007;DHT22;37034;47.886;-3.904;2023-05-10T12:06:27;18.90;92.20
51007;DHT22;37034;47.886;-3.904;2023-05-10T12:08:53;19.00;92.70
51007;DHT22;37034;47.886;-3.904;2023-05-10T12:11:19;19.20;92.80
51007;DHT22;37034;47.886;-3.904;2023-05-10T12:13:47;19.50;92.90
51007;DHT22;37034;47.886;-3.904;2023-05-10T12:16:20;19.60;92.70
51007;DHT22;37034;47.886;-3.904;2023-05-10T12:18:53;19.60;92.60
51007;DHT22;37034;47.886;-3.904;2023-05-10T12:21:20;19.80;92.30
51007;DHT22;37034;47.886;-3.904;2023-05-10T12:23:48;20.00;92.60
51007;DHT22;37034;47.886;-3.904;2023-05-10T12:26:24;19.90;92.00
51007;DHT22;37034;47.886;-3.904;2023-05-10T12:29:30;19.90;92.50
51007;DHT22;37034;47.886;-3.904;2023-05-10T12:32:20;20.00;92.00
51007;DHT22;37034;47.886;-3.904;2023-05-10T12:34:46;20.10;92.00
51007;DHT22;37034;47.886;-3.904;2023-05-10T12:37:12;20.30;91.90
51007;DHT22;37034;47.886;-3.904;2023-05-10T12:39:42;20.50;92.50
51007;DHT22;37034;47.886;-3.904;2023-05-10T12:42:09;20.50;91.90
51007;DHT22;37034;47.886;-3.904;2023-05-10T12:44:40;20.80;92.20
51007;DHT22;37034;47.886;-3.904;2023-05-10T12:47:06;21.10;92.10
51007;DHT22;37034;47.886;-3.904;2023-05-10T12:49:32;21.10;91.60
51007;DHT22;37034;47.886;-3.904;2023-05-10T12:51:57;21.10;91.00
51007;DHT22;37034;47.886;-3.904;2023-05-10T12:54:23;20.80;90.20
51007;DHT22;37034;47.886;-3.904;2023-05-10T12:56:49;20.60;90.30
51007;DHT22;37034;47.886;-3.904;2023-05-10T12:59:17;20.20;90.60
51007;DHT22;37034;47.886;-3.904;2023-05-10T13:01:43;20.10;90.40
51007;DHT22;37034;47.886;-3.904;2023-05-10T13:04:08;20.00;90.80
51007;DHT22;37034;47.886;-3.904;2023-05-10T13:06:37;19.90;90.90
51007;DHT22;37034;47.886;-3.904;2023-05-10T13:09:03;20.00;91.10
51007;DHT22;37034;47.886;-3.904;2023-05-10T13:11:29;20.00;90.70
51007;DHT22;37034;47.886;-3.904;2023-05-10T13:13:54;19.90;90.30
51007;DHT22;37034;47.886;-3.904;2023-05-10T13:16:33;19.90;90.30
51007;DHT22;37034;47.886;-3.904;2023-05-10T13:18:59;19.90;90.60
51007;DHT22;37034;47.886;-3.904;2023-05-10T13:21:25;20.00;90.70
51007;DHT22;37034;47.886;-3.904;2023-05-10T13:24:01;20.20;90.80
51007;DHT22;37034;47.886;-3.904;2023-05-10T13:26:29;20.20;90.70
51007;DHT22;37034;47.886;-3.904;2023-05-10T13:28:55;20.30;90.50
51007;DHT22;37034;47.886;-3.904;2023-05-10T13:31:21;20.00;89.70
51007;DHT22;37034;47.886;-3.904;2023-05-10T13:33:56;19.80;90.00
51007;DHT22;37034;47.886;-3.904;2023-05-10T13:36:21;19.80;90.20
51007;DHT22;37034;47.886;-3.904;2023-05-10T13:38:48;19.70;90.10
51007;DHT22;37034;47.886;-3.904;2023-05-10T13:41:14;19.80;90.60
51007;DHT22;37034;47.886;-3.904;2023-05-10T13:43:39;20.00;90.40
51007;DHT22;37034;47.886;-3.904;2023-05-10T13:46:10;20.00;90.60
51007;DHT22;37034;47.886;-3.904;2023-05-10T13:48:38;20.10;90.50
51007;DHT22;37034;47.886;-3.904;2023-05-10T13:51:13;20.20;90.80
51007;DHT22;37034;47.886;-3.904;2023-05-10T13:53:59;20.10;90.20
51007;DHT22;37034;47.886;-3.904;2023-05-10T13:56:31;20.00;90.80
51007;DHT22;37034;47.886;-3.904;2023-05-10T13:58:57;20.10;91.00
51007;DHT22;37034;47.886;-3.904;2023-05-10T14:01:23;20.10;91.20
51007;DHT22;37034;47.886;-3.904;2023-05-10T14:09:56;20.40;90.80
51007;DHT22;37034;47.886;-3.904;2023-05-10T14:12:22;20.30;90.60
51007;DHT22;37034;47.886;-3.904;2023-05-10T14:14:50;20.00;90.30
51007;DHT22;37034;47.886;-3.904;2023-05-10T14:17:18;19.80;90.50
51007;DHT22;37034;47.886;-3.904;2023-05-10T14:19:44;19.50;90.20
51007;DHT22;37034;47.886;-3.904;2023-05-10T14:22:10;19.40;90.30
51007;DHT22;37034;47.886;-3.904;2023-05-10T14:24:41;19.20;90.40
51007;DHT22;37034;47.886;-3.904;2023-05-10T14:27:08;19.00;89.90
51007;DHT22;37034;47.886;-3.904;2023-05-10T14:29:34;18.80;90.60
51007;DHT22;37034;47.886;-3.904;2023-05-10T14:32:00;18.90;90.80
51007;DHT22;37034;47.886;-3.904;2023-05-10T14:34:37;19.00;90.80
51007;DHT22;37034;47.886;-3.904;2023-05-10T14:37:05;19.00;90.70
51007;DHT22;37034;47.886;-3.904;2023-05-10T14:39:43;19.00;90.50
51007;DHT22;37034;47.886;-3.904;2023-05-10T14:42:24;18.80;91.00
51007;DHT22;37034;47.886;-3.904;2023-05-10T14:44:53;18.90;91.40
51007;DHT22;37034;47.886;-3.904;2023-05-10T14:47:19;19.10;91.10
51007;DHT22;37034;47.886;-3.904;2023-05-10T14:49:45;19.20;91.20
51007;DHT22;37034;47.886;-3.904;2023-05-10T14:52:10;19.20;90.80
51007;DHT22;37034;47.886;-3.904;2023-05-10T14:54:37;19.10;90.00
51007;DHT22;37034;47.886;-3.904;2023-05-10T14:57:06;19.20;90.40
51007;DHT22;37034;47.886;-3.904;2023-05-10T14:59:34;19.10;90.00
51007;DHT22;37034;47.886;-3.904;2023-05-10T15:02:00;19.30;90.40
51007;DHT22;37034;47.886;-3.904;2023-05-10T15:04:40;19.40;90.10
51007;DHT22;37034;47.886;-3.904;2023-05-10T15:07:06;19.50;89.70
51007;DHT22;37034;47.886;-3.904;2023-05-10T15:09:32;19.50;89.00
51007;DHT22;37034;47.886;-3.904;2023-05-10T15:15:34;19.50;90.40
51007;DHT22;37034;47.886;-3.904;2023-05-10T15:18:42;19.70;89.50
51007;DHT22;37034;47.886;-3.904;2023-05-10T15:44:03;19.30;90.10
51007;DHT22;37034;47.886;-3.904;2023-05-10T15:50:43;19.40;90.40
51007;DHT22;37034;47.886;-3.904;2023-05-10T15:53:41;19.40;88.70
51007;DHT22;37034;47.886;-3.904;2023-05-10T16:33:29;19.30;87.10
51007;DHT22;37034;47.886;-3.904;2023-05-10T16:35:55;19.20;86.60
51007;DHT22;37034;47.886;-3.904;2023-05-10T16:38:26;19.20;87.00
51007;DHT22;37034;47.886;-3.904;2023-05-10T16:40:52;18.90;86.20
51007;DHT22;37034;47.886;-3.904;2023-05-10T16:43:18;18.90;87.30
51007;DHT22;37034;47.886;-3.904;2023-05-10T16:45:51;18.70;87.70
51007;DHT22;37034;47.886;-3.904;2023-05-10T16:48:17;18.90;88.60
51007;DHT22;37034;47.886;-3.904;2023-05-10T16:50:43;19.10;89.30
51007;DHT22;37034;47.886;-3.904;2023-05-10T16:53:14;19.30;89.50
51007;DHT22;37034;47.886;-3.904;2023-05-10T16:55:42;19.50;88.90
51007;DHT22;37034;47.886;-3.904;2023-05-10T16:58:08;19.60;88.30
51007;DHT22;37034;47.886;-3.904;2023-05-10T17:00:34;19.50;87.70
51007;DHT22;37034;47.886;-3.904;2023-05-10T17:03:00;19.50;87.80
51007;DHT22;37034;47.886;-3.904;2023-05-10T17:05:26;19.50;87.80
51007;DHT22;37034;47.886;-3.904;2023-05-10T17:07:52;19.20;87.90
51007;DHT22;37034;47.886;-3.904;2023-05-10T17:10:18;19.10;88.20
51007;DHT22;37034;47.886;-3.904;2023-05-10T17:12:44;19.20;88.90
51007;DHT22;37034;47.886;-3.904;2023-05-10T17:15:10;19.30;88.40
51007;DHT22;37034;47.886;-3.904;2023-05-10T17:17:36;19.40;88.80
51007;DHT22;37034;47.886;-3.904;2023-05-10T17:20:02;19.40;88.00
51007;DHT22;37034;47.886;-3.904;2023-05-10T17:22:29;19.10;87.40
51007;DHT22;37034;47.886;-3.904;2023-05-10T17:24:55;19.00;87.90
51007;DHT22;37034;47.886;-3.904;2023-05-10T17:27:20;19.00;88.20
51007;DHT22;37034;47.886;-3.904;2023-05-10T17:29:46;18.90;87.40